createdAt,value
2023-03-10T00:00:00.575Z,1.82
2023-03-10T00:02:30.457Z,1.88
2023-03-10T00:04:57.085Z,1.88
2023-03-10T00:07:23.526Z,1.85
2023-03-10T00:09:49.925Z,1.83
2023-03-10T00:12:16.328Z,1.85
2023-03-10T00:14:42.795Z,1.92
2023-03-10T00:17:09.242Z,1.93
2023-03-10T00:19:35.656Z,1.86
2023-03-10T00:22:04.777Z,1.92
2023-03-10T00:24:31.191Z,1.99
2023-03-10T00:26:57.908Z,1.90
2023-03-10T00:29:26.217Z,1.87
2023-03-10T00:31:53.573Z,1.95
2023-03-10T00:34:19.997Z,2.02
2023-03-10T00:36:46.396Z,2.02
2023-03-10T00:39:13.303Z,1.93
2023-03-10T00:41:39.697Z,1.99
2023-03-10T00:44:09.372Z,1.95
2023-03-10T00:46:38.416Z,1.91
2023-03-10T00:49:06.413Z,1.99
2023-03-10T00:51:32.939Z,1.83
2023-03-10T00:54:01.038Z,1.90
2023-03-10T00:56:28.518Z,1.92
2023-03-10T00:58:57.146Z,1.85
2023-03-10T01:01:29.960Z,1.78
2023-03-10T01:03:59.811Z,1.77
2023-03-10T01:06:26.463Z,1.87
2023-03-10T01:08:53.693Z,1.84
2023-03-10T01:11:23.545Z,1.81
2023-03-10T01:13:50.705Z,1.91
2023-03-10T01:16:17.154Z,1.84
2023-03-10T01:18:43.905Z,1.90
2023-03-10T01:21:16.470Z,2.06
2023-03-10T01:23:42.887Z,1.96
2023-03-10T01:26:09.294Z,1.95
2023-03-10T01:28:35.771Z,1.94
2023-03-10T01:31:04.921Z,1.92
2023-03-10T01:33:31.355Z,1.98
2023-03-10T01:35:58.621Z,2.02
2023-03-10T01:38:25.080Z,1.93
2023-03-10T01:40:51.580Z,1.91
2023-03-10T01:43:20.917Z,1.84
2023-03-10T01:45:47.575Z,1.81
2023-03-10T01:48:16.956Z,1.91
2023-03-10T01:50:46.487Z,1.89
2023-03-10T01:53:15.969Z,1.95
2023-03-10T01:55:48.374Z,1.92
2023-03-10T01:58:16.803Z,2.03
2023-03-10T02:00:43.869Z,1.89
2023-03-10T02:03:18.031Z,1.95
2023-03-10T02:06:19.427Z,1.90
2023-03-10T02:08:47.599Z,1.87
2023-03-10T02:11:16.294Z,1.97
2023-03-10T02:13:42.952Z,2.00
2023-03-10T02:16:10.028Z,1.99
2023-03-10T02:18:36.565Z,1.98
2023-03-10T02:21:22.003Z,2.00
2023-03-10T02:24:01.603Z,1.94
2023-03-10T02:26:40.228Z,1.91
2023-03-10T02:29:10.479Z,1.99
2023-03-10T02:31:37.554Z,1.98
2023-03-10T02:34:06.659Z,1.91
2023-03-10T02:36:33.133Z,1.92
2023-03-10T02:38:59.596Z,2.01
2023-03-10T02:41:33.638Z,1.94
2023-03-10T02:44:04.332Z,1.90
2023-03-10T02:46:30.990Z,1.92
2023-03-10T02:49:02.317Z,1.95
2023-03-10T02:51:42.863Z,1.99
2023-03-10T02:54:13.326Z,2.06
2023-03-10T02:56:42.356Z,2.08
2023-03-10T02:59:10.490Z,2.05
2023-03-10T03:01:41.342Z,2.07
2023-03-10T03:04:07.866Z,2.11
2023-03-10T03:06:35.299Z,2.09
2023-03-10T03:09:02.067Z,2.09
2023-03-10T03:11:30.086Z,2.06
2023-03-10T03:13:56.608Z,2.02
2023-03-10T03:16:24.574Z,2.02
2023-03-10T03:18:55.174Z,1.99
2023-03-10T03:21:23.313Z,2.00
2023-03-10T03:23:50.007Z,2.00
2023-03-10T03:26:22.267Z,2.10
2023-03-10T03:28:52.124Z,2.04
2023-03-10T03:31:24.565Z,2.05
2023-03-10T03:33:57.311Z,2.12
2023-03-10T03:36:24.433Z,2.05
2023-03-10T03:38:51.290Z,2.04
2023-03-10T03:41:18.114Z,2.08
2023-03-10T03:43:44.637Z,2.11
2023-03-10T03:46:11.658Z,2.18
2023-03-10T03:48:38.564Z,2.22
2023-03-10T03:51:08.255Z,2.20
2023-03-10T03:53:39.321Z,2.21
2023-03-10T03:56:05.971Z,2.20
2023-03-10T03:58:34.947Z,2.23
2023-03-10T04:01:01.485Z,2.26
2023-03-10T04:03:32.128Z,2.31
2023-03-10T04:05:58.883Z,2.22
2023-03-10T04:08:25.796Z,2.25
2023-03-10T04:10:55.419Z,2.27
2023-03-10T04:13:25.550Z,2.32
2023-03-10T04:15:59.492Z,2.40
2023-03-10T04:18:31.324Z,2.41
2023-03-10T04:20:58.317Z,2.45
2023-03-10T04:23:25.277Z,2.35
2023-03-10T04:25:52.173Z,2.37
2023-03-10T04:28:18.686Z,2.41
2023-03-10T04:30:48.239Z,2.40
2023-03-10T04:33:16.829Z,2.45
2023-03-10T04:35:47.600Z,2.47
2023-03-10T04:38:15.410Z,2.40
2023-03-10T04:40:42.086Z,2.37
2023-03-10T04:43:09.146Z,2.36
2023-03-10T04:45:35.820Z,2.39
2023-03-10T04:48:02.935Z,2.35
2023-03-10T04:50:29.457Z,2.29
2023-03-10T04:52:56.402Z,2.32
2023-03-10T04:55:26.665Z,2.30
2023-03-10T04:57:53.124Z,2.28
2023-03-10T05:00:20.070Z,2.31
2023-03-10T05:02:46.572Z,2.38
2023-03-10T05:05:13.325Z,2.45
2023-03-10T05:07:43.710Z,2.34
2023-03-10T05:10:10.866Z,2.31
2023-03-10T05:12:42.128Z,2.43
2023-03-10T05:15:10.244Z,2.39
2023-03-10T05:17:36.882Z,2.35
2023-03-10T05:20:04.950Z,2.45
2023-03-10T05:22:31.495Z,2.59
2023-03-10T05:24:57.933Z,2.55
2023-03-10T05:27:24.633Z,2.38
2023-03-10T05:29:51.078Z,2.37
2023-03-10T05:32:24.022Z,2.45
2023-03-10T05:34:50.448Z,2.37
2023-03-10T05:37:18.289Z,2.48
2023-03-10T05:39:44.877Z,2.61
2023-03-10T05:42:16.528Z,2.65
2023-03-10T05:44:43.012Z,2.64
2023-03-10T05:47:09.525Z,2.74
2023-03-10T05:49:38.609Z,2.76
2023-03-10T05:52:06.109Z,2.70
2023-03-10T05:54:33.010Z,2.81
2023-03-10T05:56:59.531Z,2.72
2023-03-10T05:59:27.943Z,2.75
2023-03-10T06:01:55.010Z,2.76
2023-03-10T06:04:21.454Z,2.73
2023-03-10T06:06:47.949Z,2.74
2023-03-10T06:09:14.343Z,2.68
2023-03-10T06:11:40.729Z,2.73
2023-03-10T06:14:07.123Z,2.68
2023-03-10T06:16:33.581Z,2.64
2023-03-10T06:19:00.037Z,2.74
2023-03-10T06:21:28.232Z,2.78
2023-03-10T06:23:54.778Z,2.78
2023-03-10T06:26:22.798Z,2.91
2023-03-10T06:28:49.196Z,2.94
2023-03-10T06:31:18.643Z,2.93
2023-03-10T06:33:45.446Z,2.94
2023-03-10T06:36:12.924Z,2.99
2023-03-10T06:38:40.112Z,2.95
2023-03-10T06:41:06.991Z,2.89
2023-03-10T06:43:33.815Z,2.94
2023-03-10T06:46:04.399Z,2.96
2023-03-10T06:48:30.869Z,2.94
2023-03-10T06:50:57.267Z,2.97
2023-03-10T06:53:23.702Z,3.04
2023-03-10T06:56:01.989Z,3.08
2023-03-10T06:58:30.174Z,3.12
2023-03-10T07:00:56.784Z,3.26
2023-03-10T07:03:25.959Z,3.20
2023-03-10T07:05:52.978Z,3.29
2023-03-10T07:08:19.415Z,3.43
2023-03-10T07:10:45.857Z,3.42
2023-03-10T07:13:15.484Z,3.61
2023-03-10T07:15:42.209Z,3.61
2023-03-10T07:18:08.611Z,3.58
2023-03-10T07:20:35.505Z,3.75
2023-03-10T07:23:01.898Z,3.65
2023-03-10T07:25:28.300Z,3.71
2023-03-10T07:27:54.701Z,3.63
2023-03-10T07:30:21.277Z,3.78
2023-03-10T07:32:47.691Z,3.83
2023-03-10T07:35:14.129Z,3.87
2023-03-10T07:37:40.798Z,3.88
2023-03-10T07:40:08.482Z,3.95
2023-03-10T07:42:35.172Z,3.96
2023-03-10T07:45:02.046Z,4.12
2023-03-10T07:47:28.436Z,4.14
2023-03-10T07:49:54.841Z,3.98
2023-03-10T07:52:21.341Z,4.08
2023-03-10T07:54:47.830Z,4.09
2023-03-10T07:57:15.103Z,4.16
2023-03-10T07:59:42.008Z,4.24
2023-03-10T08:02:12.603Z,4.28
2023-03-10T08:04:39.372Z,4.32
2023-03-10T08:07:05.935Z,4.39
2023-03-10T08:09:33.002Z,4.37
2023-03-10T08:11:59.778Z,4.43
2023-03-10T08:14:28.658Z,4.43
2023-03-10T08:16:56.617Z,4.57
2023-03-10T08:19:27.413Z,4.66
2023-03-10T08:21:55.973Z,4.75
2023-03-10T08:24:22.458Z,4.88
2023-03-10T08:26:48.862Z,4.87
2023-03-10T08:29:15.270Z,4.96
2023-03-10T08:31:41.812Z,5.12
2023-03-10T08:34:08.603Z,5.22
2023-03-10T08:36:35.412Z,5.33
2023-03-10T08:39:02.195Z,5.43
2023-03-10T08:41:36.178Z,5.45
2023-03-10T08:44:03.894Z,5.56
2023-03-10T08:46:32.029Z,5.56
2023-03-10T08:48:59.496Z,5.66
2023-03-10T08:51:27.116Z,5.74
2023-03-10T08:53:54.024Z,5.87
2023-03-10T08:56:22.255Z,5.88
2023-03-10T08:58:48.713Z,5.99
2023-03-10T09:01:16.838Z,6.12
2023-03-10T09:03:44.426Z,6.14
2023-03-10T09:06:11.041Z,6.15
2023-03-10T09:08:37.450Z,6.28
2023-03-10T09:11:04.046Z,6.32
2023-03-10T09:13:30.467Z,6.41
2023-03-10T09:15:56.991Z,6.52
2023-03-10T09:18:23.516Z,6.63
2023-03-10T09:20:50.322Z,6.72
2023-03-10T09:23:16.848Z,6.78
2023-03-10T09:25:43.310Z,6.90
2023-03-10T09:28:11.529Z,6.98
2023-03-10T09:30:40.827Z,7.09
2023-03-10T09:33:16.803Z,7.11
2023-03-10T09:35:52.552Z,7.24
2023-03-10T09:38:19.424Z,7.25
2023-03-10T09:41:13.823Z,7.10
2023-03-10T09:43:50.323Z,7.32
2023-03-10T09:46:28.954Z,7.37
2023-03-10T09:49:25.789Z,7.40
2023-03-10T09:51:52.404Z,7.41
2023-03-10T09:54:39.096Z,7.36
2023-03-10T09:57:20.836Z,7.40
2023-03-10T09:59:50.512Z,7.47
2023-03-10T10:02:30.563Z,7.52
2023-03-10T10:05:03.256Z,7.65
2023-03-10T10:07:42.675Z,7.64
2023-03-10T10:10:24.619Z,7.54
2023-03-10T10:12:52.504Z,7.64
2023-03-10T10:15:22.581Z,7.62
2023-03-10T10:18:33.919Z,7.69
2023-03-10T10:21:10.555Z,7.70
2023-03-10T10:23:52.251Z,7.78
2023-03-10T10:26:21.015Z,7.84
2023-03-10T10:28:55.600Z,7.94
2023-03-10T10:31:25.226Z,7.99
2023-03-10T10:33:57.893Z,8.15
2023-03-10T10:36:27.364Z,8.19
2023-03-10T10:38:55.399Z,8.16
2023-03-10T10:41:26.115Z,8.09
2023-03-10T10:43:56.367Z,8.27
2023-03-10T10:46:29.651Z,8.29
2023-03-10T10:49:26.717Z,8.37
2023-03-10T10:52:18.158Z,8.16
2023-03-10T10:54:54.126Z,8.17
2023-03-10T10:57:23.103Z,8.11
2023-03-10T10:59:49.539Z,8.11
2023-03-10T11:02:30.996Z,7.94
2023-03-10T11:05:18.325Z,7.89
2023-03-10T11:07:45.281Z,7.96
2023-03-10T11:10:16.996Z,8.00
2023-03-10T11:13:05.683Z,8.08
2023-03-10T11:15:39.553Z,8.15
2023-03-10T11:18:23.374Z,8.28
2023-03-10T11:21:07.019Z,8.24
2023-03-10T11:23:52.343Z,7.99
2023-03-10T11:26:31.141Z,7.99
2023-03-10T11:29:14.730Z,7.95
2023-03-10T11:32:08.160Z,8.12
2023-03-10T11:34:45.739Z,8.26
2023-03-10T11:37:40.868Z,8.15
2023-03-10T11:40:23.550Z,8.19
2023-03-10T11:42:56.501Z,8.33
2023-03-10T11:45:54.717Z,8.40
2023-03-10T11:48:29.677Z,8.32
2023-03-10T11:50:59.257Z,8.07
2023-03-10T11:53:33.220Z,8.03
2023-03-10T11:56:01.694Z,7.90
2023-03-10T11:58:54.888Z,8.02
2023-03-10T12:01:30.948Z,7.97
2023-03-10T12:04:06.480Z,7.88
2023-03-10T12:06:44.639Z,7.95
2023-03-10T12:09:25.292Z,8.07
2023-03-10T12:11:52.938Z,8.15
2023-03-10T12:14:19.997Z,8.13
2023-03-10T12:16:47.552Z,8.31
2023-03-10T12:19:13.976Z,8.22
2023-03-10T12:21:40.477Z,8.29
2023-03-10T12:24:47.062Z,8.10
2023-03-10T12:27:13.480Z,8.06
2023-03-10T12:29:42.271Z,8.07
2023-03-10T12:32:38.618Z,7.86
2023-03-10T12:35:29.202Z,7.97
2023-03-10T12:38:33.405Z,8.18
2023-03-10T12:41:01.375Z,8.38
2023-03-10T12:43:43.044Z,8.42
2023-03-10T12:46:12.502Z,8.55
2023-03-10T12:48:47.597Z,8.68
2023-03-10T12:51:20.428Z,8.60
2023-03-10T12:54:14.798Z,8.30
2023-03-10T12:56:57.315Z,8.31
2023-03-10T12:59:43.959Z,8.33
2023-03-10T13:02:31.914Z,8.43
2023-03-10T13:05:06.751Z,8.48
2023-03-10T13:07:35.306Z,8.44
2023-03-10T13:10:03.434Z,8.27
2023-03-10T13:12:46.371Z,8.30
2023-03-10T13:15:26.066Z,8.29
2023-03-10T13:17:55.166Z,8.31
2023-03-10T13:20:22.981Z,8.32
2023-03-10T13:22:54.638Z,8.19
2023-03-10T13:25:21.172Z,8.26
2023-03-10T13:27:47.573Z,8.18
2023-03-10T13:30:19.929Z,8.20
2023-03-10T13:32:58.380Z,8.30
2023-03-10T13:35:38.311Z,8.26
2023-03-10T13:38:16.646Z,8.34
2023-03-10T13:40:48.530Z,8.10
2023-03-10T13:43:30.600Z,8.13
2023-03-10T13:45:58.737Z,8.25
2023-03-10T13:48:26.652Z,8.23
2023-03-10T13:51:05.282Z,8.11
2023-03-10T13:53:31.903Z,8.13
2023-03-10T13:55:58.387Z,8.36
2023-03-10T13:58:26.065Z,8.29
2023-03-10T14:00:56.232Z,8.26
2023-03-10T14:03:23.042Z,8.23
2023-03-10T14:05:49.915Z,8.23
2023-03-10T14:08:28.644Z,8.09
2023-03-10T14:11:21.957Z,8.11
2023-03-10T14:13:48.566Z,8.02
2023-03-10T14:16:15.114Z,8.06
2023-03-10T14:18:43.472Z,8.19
2023-03-10T14:21:31.161Z,8.17
2023-03-10T14:24:09.940Z,8.10
2023-03-10T14:26:38.505Z,7.89
2023-03-10T14:29:14.728Z,7.70
2023-03-10T14:31:41.145Z,7.70
2023-03-10T14:34:12.452Z,7.80
2023-03-10T14:36:39.963Z,7.88
2023-03-10T14:39:09.381Z,7.87
2023-03-10T14:41:36.139Z,7.50
2023-03-10T14:44:02.890Z,7.37
2023-03-10T14:46:30.081Z,7.33
2023-03-10T14:48:56.597Z,7.08
2023-03-10T14:51:35.095Z,7.03
2023-03-10T14:54:02.710Z,7.08
2023-03-10T14:56:30.128Z,6.98
2023-03-10T14:58:58.274Z,6.97
2023-03-10T15:01:24.792Z,6.89
2023-03-10T15:03:51.444Z,6.72
2023-03-10T15:06:19.648Z,6.69
2023-03-10T15:08:46.079Z,6.61
2023-03-10T15:11:12.602Z,6.67
2023-03-10T15:13:39.467Z,6.72
2023-03-10T15:16:06.740Z,6.65
2023-03-10T15:18:33.212Z,6.49
2023-03-10T15:21:00.490Z,6.55
2023-03-10T15:23:28.653Z,6.52
2023-03-10T15:25:55.973Z,6.51
2023-03-10T15:28:23.044Z,6.52
2023-03-10T15:30:49.892Z,6.61
2023-03-10T15:33:16.708Z,6.51
2023-03-10T15:35:43.481Z,6.46
2023-03-10T15:38:13.953Z,6.37
2023-03-10T15:40:40.730Z,6.21
2023-03-10T15:43:07.454Z,6.11
2023-03-10T15:45:34.045Z,5.81
2023-03-10T15:48:00.473Z,5.74
2023-03-10T15:50:27.480Z,5.55
2023-03-10T15:52:56.634Z,5.52
2023-03-10T15:55:23.917Z,5.52
2023-03-10T15:57:51.266Z,5.59
2023-03-10T16:00:19.141Z,5.61
2023-03-10T16:02:46.769Z,5.55
2023-03-10T16:05:13.655Z,5.52
2023-03-10T16:07:40.062Z,5.55
2023-03-10T16:10:08.768Z,5.40
2023-03-10T16:12:35.164Z,5.29
2023-03-10T16:15:01.554Z,5.42
2023-03-10T16:17:29.185Z,5.32
2023-03-10T16:19:55.600Z,5.28
2023-03-10T16:22:22.031Z,5.11
2023-03-10T16:24:48.426Z,5.08
2023-03-10T16:27:15.745Z,5.01
2023-03-10T16:29:42.152Z,4.96
2023-03-10T16:32:08.982Z,4.85
2023-03-10T16:34:35.943Z,4.91
2023-03-10T16:37:02.597Z,4.97
2023-03-10T16:39:32.724Z,4.90
2023-03-10T16:41:59.352Z,4.71
2023-03-10T16:44:26.143Z,4.61
2023-03-10T16:46:52.567Z,4.76
2023-03-10T16:49:19.072Z,4.69
2023-03-10T16:51:47.543Z,4.67
2023-03-10T16:54:17.140Z,4.73
2023-03-10T16:56:46.305Z,4.63
2023-03-10T16:59:18.764Z,4.56
2023-03-10T17:01:45.770Z,4.59
2023-03-10T17:04:12.703Z,4.60
2023-03-10T17:06:39.543Z,4.56
2023-03-10T17:09:08.867Z,4.56
2023-03-10T17:11:40.772Z,4.50
2023-03-10T17:14:10.653Z,4.58
2023-03-10T17:16:37.665Z,4.59
2023-03-10T17:19:06.889Z,4.50
2023-03-10T17:21:35.991Z,4.49
2023-03-10T17:24:03.831Z,4.64
2023-03-10T17:26:30.613Z,4.79
2023-03-10T17:28:57.430Z,4.80
2023-03-10T17:31:26.254Z,4.65
2023-03-10T17:33:55.394Z,4.46
2023-03-10T17:36:22.073Z,4.34
2023-03-10T17:38:48.502Z,4.50
2023-03-10T17:41:16.161Z,4.58
2023-03-10T17:43:42.876Z,4.51
2023-03-10T17:46:21.384Z,4.36
2023-03-10T17:48:48.242Z,4.39
2023-03-10T17:51:26.135Z,4.36
2023-03-10T17:53:53.195Z,4.33
2023-03-10T17:56:21.865Z,4.24
2023-03-10T17:58:49.597Z,4.19
2023-03-10T18:01:19.347Z,4.17
2023-03-10T18:03:48.206Z,4.23
2023-03-10T18:06:23.796Z,4.19
2023-03-10T18:08:51.106Z,4.22
2023-03-10T18:11:19.889Z,4.13
2023-03-10T18:13:46.609Z,4.02
2023-03-10T18:16:21.773Z,4.11
2023-03-10T18:18:49.482Z,4.19
2023-03-10T18:21:17.702Z,4.13
2023-03-10T18:23:45.396Z,4.07
2023-03-10T18:26:14.840Z,4.01
2023-03-10T18:28:42.011Z,3.94
2023-03-10T18:31:17.237Z,3.88
2023-03-10T18:33:43.709Z,3.84
2023-03-10T18:36:13.584Z,3.86
2023-03-10T18:38:40.637Z,3.81
2023-03-10T18:41:07.120Z,3.79
2023-03-10T18:43:34.184Z,3.81
2023-03-10T18:46:01.353Z,3.69
2023-03-10T18:48:28.644Z,3.79
2023-03-10T18:50:56.514Z,3.70
2023-03-10T18:53:24.118Z,3.69
2023-03-10T18:55:50.604Z,3.67
2023-03-10T18:58:17.013Z,3.70
2023-03-10T19:00:43.389Z,3.64
2023-03-10T19:03:12.875Z,3.39
2023-03-10T19:05:40.312Z,3.37
2023-03-10T19:08:07.156Z,3.34
2023-03-10T19:10:33.594Z,3.28
2023-03-10T19:13:00.035Z,3.46
2023-03-10T19:15:26.497Z,3.40
2023-03-10T19:17:53.019Z,3.37
2023-03-10T19:20:19.412Z,3.28
2023-03-10T19:22:49.565Z,3.33
2023-03-10T19:25:16.603Z,3.33
2023-03-10T19:27:43.203Z,3.45
2023-03-10T19:30:12.795Z,3.50
2023-03-10T19:32:39.737Z,3.45
2023-03-10T19:35:08.699Z,3.43
2023-03-10T19:37:36.202Z,3.30
2023-03-10T19:40:06.032Z,3.44
2023-03-10T19:42:34.106Z,3.33
2023-03-10T19:45:01.083Z,3.26
2023-03-10T19:47:30.478Z,3.28
2023-03-10T19:49:56.874Z,3.34
2023-03-10T19:52:23.914Z,3.30
2023-03-10T19:54:51.214Z,3.24
2023-03-10T19:57:17.626Z,3.32
2023-03-10T19:59:44.047Z,3.36
2023-03-10T20:02:14.979Z,3.19
2023-03-10T20:04:41.752Z,3.29
2023-03-10T20:07:08.175Z,3.22
2023-03-10T20:09:34.697Z,3.14
2023-03-10T20:12:01.149Z,3.12
2023-03-10T20:14:27.692Z,3.15
2023-03-10T20:16:54.332Z,3.09
2023-03-10T20:19:22.737Z,3.07
2023-03-10T20:21:50.416Z,3.09
2023-03-10T20:24:17.808Z,2.98
2023-03-10T20:26:44.459Z,3.11
2023-03-10T20:29:11.549Z,3.06
2023-03-10T20:31:38.080Z,3.07
2023-03-10T20:34:05.874Z,3.10
2023-03-10T20:36:32.581Z,3.09
2023-03-10T20:38:59.440Z,3.17
2023-03-10T20:41:25.880Z,3.03
2023-03-10T20:43:53.402Z,2.97
2023-03-10T20:46:19.986Z,2.95
2023-03-10T20:48:49.827Z,2.87
2023-03-10T20:51:18.689Z,2.92
2023-03-10T20:53:45.480Z,2.87
2023-03-10T20:56:12.234Z,2.88
2023-03-10T20:58:38.775Z,2.76
2023-03-10T21:01:05.338Z,2.75
2023-03-10T21:03:31.927Z,2.76
2023-03-10T21:05:58.333Z,2.63
2023-03-10T21:08:24.767Z,2.68
2023-03-10T21:10:51.634Z,2.68
2023-03-10T21:13:18.051Z,2.72
2023-03-10T21:15:44.451Z,2.60
2023-03-10T21:18:10.877Z,2.54
2023-03-10T21:20:37.278Z,2.56
2023-03-10T21:23:03.706Z,2.55
2023-03-10T21:25:30.166Z,2.49
2023-03-10T21:27:58.679Z,2.43
2023-03-10T21:30:30.589Z,2.43
2023-03-10T21:32:58.087Z,2.44
2023-03-10T21:35:30.377Z,2.48
2023-03-10T21:37:57.315Z,2.55
2023-03-10T21:40:24.310Z,2.54
2023-03-10T21:42:51.127Z,2.68
2023-03-10T21:45:20.541Z,2.78
2023-03-10T21:47:47.455Z,2.76
2023-03-10T21:50:14.928Z,2.83
2023-03-10T21:52:42.051Z,2.71
2023-03-10T21:55:13.329Z,2.50
2023-03-10T21:57:39.785Z,2.56
2023-03-10T22:00:09.287Z,2.66
2023-03-10T22:02:37.019Z,2.49
2023-03-10T22:05:06.052Z,2.51
2023-03-10T22:07:33.236Z,2.51
2023-03-10T22:09:59.859Z,2.48
2023-03-10T22:12:26.329Z,2.45
2023-03-10T22:14:56.300Z,2.56
2023-03-10T22:17:24.641Z,2.49
2023-03-10T22:19:54.624Z,2.50
2023-03-10T22:22:22.021Z,2.52
2023-03-10T22:24:48.757Z,2.55
2023-03-10T22:27:15.750Z,2.46
2023-03-10T22:29:42.154Z,2.33
2023-03-10T22:32:08.648Z,2.30
2023-03-10T22:34:35.101Z,2.35
2023-03-10T22:37:01.508Z,2.33
2023-03-10T22:39:27.928Z,2.43
2023-03-10T22:41:54.380Z,2.29
2023-03-10T22:44:20.907Z,2.31
2023-03-10T22:46:47.502Z,2.31
2023-03-10T22:49:14.740Z,2.35
2023-03-10T22:51:41.216Z,2.21
2023-03-10T22:54:07.730Z,2.32
2023-03-10T22:56:34.170Z,2.41
2023-03-10T22:59:03.771Z,2.29
2023-03-10T23:01:30.420Z,2.40
2023-03-10T23:03:56.872Z,2.47
2023-03-10T23:06:24.471Z,2.33
2023-03-10T23:08:51.810Z,2.31
2023-03-10T23:11:18.300Z,2.41
2023-03-10T23:13:44.713Z,2.49
2023-03-10T23:16:11.139Z,2.63
2023-03-10T23:18:37.561Z,2.72
2023-03-10T23:21:04.751Z,2.70
2023-03-10T23:23:31.893Z,2.63
2023-03-10T23:25:58.336Z,2.53
2023-03-10T23:28:24.753Z,2.48
2023-03-10T23:30:51.450Z,2.46
2023-03-10T23:33:20.363Z,2.60
2023-03-10T23:35:50.276Z,2.62
2023-03-10T23:38:16.757Z,2.78
2023-03-10T23:40:43.151Z,2.78
2023-03-10T23:43:09.618Z,2.82
2023-03-10T23:45:37.463Z,2.78
2023-03-10T23:48:06.979Z,2.79
2023-03-10T23:50:36.411Z,2.72
2023-03-10T23:53:03.966Z,2.72
2023-03-10T23:55:34.725Z,2.58
2023-03-10T23:58:02.185Z,2.53
